sensor_id;sensor_type;location;lat;lon;timestamp;P1;durP1;ratioP1;P2;durP2;ratioP2
15982;SDS011;14442;50.196;8.096;2022-08-16T00:00:55;3.90;;;2.10;;
15982;SDS011;14442;50.196;8.096;2022-08-16T00:03:21;4.27;;;2.27;;
15982;SDS011;14442;50.196;8.096;2022-08-16T00:05:49;3.53;;;1.87;;
15982;SDS011;14442;50.196;8.096;2022-08-16T00:08:16;2.63;;;1.77;;
15982;SDS011;14442;50.196;8.096;2022-08-16T00:10:45;7.07;;;2.07;;
15982;SDS011;14442;50.196;8.096;2022-08-16T00:13:12;2.83;;;1.57;;
15982;SDS011;14442;50.196;8.096;2022-08-16T00:15:39;2.83;;;2.20;;
15982;SDS011;14442;50.196;8.096;2022-08-16T00:18:08;3.23;;;1.80;;
15982;SDS011;14442;50.196;8.096;2022-08-16T00:20:36;1.83;;;1.73;;
15982;SDS011;14442;50.196;8.096;2022-08-16T00:23:05;4.23;;;2.00;;
15982;SDS011;14442;50.196;8.096;2022-08-16T00:25:32;2.80;;;1.63;;
15982;SDS011;14442;50.196;8.096;2022-08-16T00:28:01;1.90;;;1.73;;
15982;SDS011;14442;50.196;8.096;2022-08-16T00:30:28;1.87;;;1.77;;
15982;SDS011;14442;50.196;8.096;2022-08-16T00:32:56;2.23;;;1.60;;
15982;SDS011;14442;50.196;8.096;2022-08-16T00:35:26;4.53;;;1.77;;
15982;SDS011;14442;50.196;8.096;2022-08-16T00:37:59;6.73;;;2.37;;
15982;SDS011;14442;50.196;8.096;2022-08-16T00:40:29;3.50;;;1.80;;
15982;SDS011;14442;50.196;8.096;2022-08-16T00:43:00;3.13;;;1.70;;
15982;SDS011;14442;50.196;8.096;2022-08-16T00:45:32;2.43;;;1.80;;
15982;SDS011;14442;50.196;8.096;2022-08-16T00:48:01;1.83;;;1.73;;
15982;SDS011;14442;50.196;8.096;2022-08-16T00:50:31;1.83;;;1.70;;
15982;SDS011;14442;50.196;8.096;2022-08-16T00:53:00;1.70;;;1.60;;
15982;SDS011;14442;50.196;8.096;2022-08-16T00:55:27;2.70;;;1.53;;
15982;SDS011;14442;50.196;8.096;2022-08-16T00:57:55;1.93;;;1.77;;
15982;SDS011;14442;50.196;8.096;2022-08-16T01:00:23;2.90;;;1.90;;
15982;SDS011;14442;50.196;8.096;2022-08-16T01:02:53;1.50;;;1.40;;
15982;SDS011;14442;50.196;8.096;2022-08-16T01:05:21;1.70;;;1.60;;
15982;SDS011;14442;50.196;8.096;2022-08-16T01:07:48;2.80;;;1.73;;
15982;SDS011;14442;50.196;8.096;2022-08-16T01:10:14;1.93;;;1.37;;
15982;SDS011;14442;50.196;8.096;2022-08-16T01:12:41;1.80;;;1.70;;
15982;SDS011;14442;50.196;8.096;2022-08-16T01:15:08;2.33;;;1.50;;
15982;SDS011;14442;50.196;8.096;2022-08-16T01:17:38;1.60;;;1.50;;
15982;SDS011;14442;50.196;8.096;2022-08-16T01:20:08;1.43;;;1.40;;
15982;SDS011;14442;50.196;8.096;2022-08-16T01:22:40;1.50;;;1.40;;
15982;SDS011;14442;50.196;8.096;2022-08-16T01:25:17;1.70;;;1.60;;
15982;SDS011;14442;50.196;8.096;2022-08-16T01:27:47;1.77;;;1.50;;
15982;SDS011;14442;50.196;8.096;2022-08-16T01:30:16;1.60;;;1.50;;
15982;SDS011;14442;50.196;8.096;2022-08-16T01:32:44;1.83;;;1.73;;
15982;SDS011;14442;50.196;8.096;2022-08-16T01:35:14;1.80;;;1.70;;
15982;SDS011;14442;50.196;8.096;2022-08-16T01:37:44;1.57;;;1.47;;
15982;SDS011;14442;50.196;8.096;2022-08-16T01:40:14;1.50;;;1.50;;
15982;SDS011;14442;50.196;8.096;2022-08-16T01:42:43;1.60;;;1.50;;
15982;SDS011;14442;50.196;8.096;2022-08-16T01:45:13;1.70;;;1.60;;
15982;SDS011;14442;50.196;8.096;2022-08-16T01:47:40;1.50;;;1.40;;
15982;SDS011;14442;50.196;8.096;2022-08-16T01:50:08;1.23;;;1.23;;
15982;SDS011;14442;50.196;8.096;2022-08-16T01:52:35;2.80;;;1.47;;
15982;SDS011;14442;50.196;8.096;2022-08-16T01:55:02;1.17;;;1.13;;
15982;SDS011;14442;50.196;8.096;2022-08-16T01:57:31;1.40;;;1.40;;
15982;SDS011;14442;50.196;8.096;2022-08-16T01:59:58;1.40;;;1.33;;
15982;SDS011;14442;50.196;8.096;2022-08-16T02:02:25;2.80;;;1.00;;
15982;SDS011;14442;50.196;8.096;2022-08-16T02:04:52;1.47;;;1.37;;
15982;SDS011;14442;50.196;8.096;2022-08-16T02:07:19;1.37;;;1.30;;
15982;SDS011;14442;50.196;8.096;2022-08-16T02:09:48;1.50;;;1.40;;
15982;SDS011;14442;50.196;8.096;2022-08-16T02:12:15;1.63;;;1.43;;
15982;SDS011;14442;50.196;8.096;2022-08-16T02:14:44;1.47;;;1.37;;
15982;SDS011;14442;50.196;8.096;2022-08-16T02:17:11;1.43;;;1.43;;
15982;SDS011;14442;50.196;8.096;2022-08-16T02:19:40;1.60;;;1.50;;
15982;SDS011;14442;50.196;8.096;2022-08-16T02:22:10;1.53;;;1.33;;
15982;SDS011;14442;50.196;8.096;2022-08-16T02:24:40;1.27;;;1.17;;
15982;SDS011;14442;50.196;8.096;2022-08-16T02:27:07;2.40;;;1.77;;
15982;SDS011;14442;50.196;8.096;2022-08-16T02:29:33;1.23;;;1.13;;
15982;SDS011;14442;50.196;8.096;2022-08-16T02:32:02;1.37;;;1.27;;
15982;SDS011;14442;50.196;8.096;2022-08-16T02:34:30;1.77;;;1.67;;
15982;SDS011;14442;50.196;8.096;2022-08-16T02:36:57;1.57;;;1.57;;
15982;SDS011;14442;50.196;8.096;2022-08-16T02:39:24;1.60;;;1.50;;
15982;SDS011;14442;50.196;8.096;2022-08-16T02:41:51;1.60;;;1.50;;
15982;SDS011;14442;50.196;8.096;2022-08-16T02:44:18;3.07;;;1.63;;
15982;SDS011;14442;50.196;8.096;2022-08-16T02:46:45;1.33;;;1.33;;
15982;SDS011;14442;50.196;8.096;2022-08-16T02:49:13;1.93;;;1.30;;
15982;SDS011;14442;50.196;8.096;2022-08-16T02:51:40;1.30;;;1.30;;
15982;SDS011;14442;50.196;8.096;2022-08-16T02:54:08;1.27;;;1.27;;
15982;SDS011;14442;50.196;8.096;2022-08-16T02:56:38;1.30;;;1.30;;
15982;SDS011;14442;50.196;8.096;2022-08-16T02:59:05;1.27;;;1.23;;
15982;SDS011;14442;50.196;8.096;2022-08-16T03:01:31;1.20;;;1.20;;
15982;SDS011;14442;50.196;8.096;2022-08-16T03:03:59;2.10;;;1.70;;
15982;SDS011;14442;50.196;8.096;2022-08-16T03:06:28;2.20;;;2.10;;
15982;SDS011;14442;50.196;8.096;2022-08-16T03:08:55;3.10;;;2.50;;
15982;SDS011;14442;50.196;8.096;2022-08-16T03:11:21;2.23;;;2.13;;
15982;SDS011;14442;50.196;8.096;2022-08-16T03:13:53;2.20;;;2.07;;
15982;SDS011;14442;50.196;8.096;2022-08-16T03:16:20;2.30;;;2.20;;
15982;SDS011;14442;50.196;8.096;2022-08-16T03:18:48;2.97;;;2.67;;
15982;SDS011;14442;50.196;8.096;2022-08-16T03:21:14;2.63;;;2.30;;
15982;SDS011;14442;50.196;8.096;2022-08-16T03:23:43;2.50;;;2.30;;
15982;SDS011;14442;50.196;8.096;2022-08-16T03:26:09;2.27;;;2.17;;
15982;SDS011;14442;50.196;8.096;2022-08-16T03:28:37;3.13;;;1.97;;
15982;SDS011;14442;50.196;8.096;2022-08-16T03:31:04;3.73;;;2.50;;
15982;SDS011;14442;50.196;8.096;2022-08-16T03:33:32;3.20;;;2.13;;
15982;SDS011;14442;50.196;8.096;2022-08-16T03:36:00;2.20;;;2.00;;
15982;SDS011;14442;50.196;8.096;2022-08-16T03:38:27;2.23;;;2.03;;
15982;SDS011;14442;50.196;8.096;2022-08-16T03:40:57;2.70;;;2.50;;
15982;SDS011;14442;50.196;8.096;2022-08-16T03:43:25;2.50;;;2.30;;
15982;SDS011;14442;50.196;8.096;2022-08-16T03:45:53;2.43;;;2.30;;
15982;SDS011;14442;50.196;8.096;2022-08-16T03:48:21;2.60;;;2.40;;
15982;SDS011;14442;50.196;8.096;2022-08-16T03:50:50;2.27;;;2.17;;
15982;SDS011;14442;50.196;8.096;2022-08-16T03:53:17;2.27;;;2.13;;
15982;SDS011;14442;50.196;8.096;2022-08-16T03:55:43;2.13;;;2.03;;
15982;SDS011;14442;50.196;8.096;2022-08-16T03:58:11;3.53;;;2.57;;
15982;SDS011;14442;50.196;8.096;2022-08-16T04:00:38;2.67;;;2.47;;
15982;SDS011;14442;50.196;8.096;2022-08-16T04:03:05;2.17;;;2.07;;
15982;SDS011;14442;50.196;8.096;2022-08-16T04:05:32;1.87;;;1.77;;
15982;SDS011;14442;50.196;8.096;2022-08-16T04:08:00;2.07;;;1.97;;
15982;SDS011;14442;50.196;8.096;2022-08-16T04:10:27;2.43;;;2.33;;
15982;SDS011;14442;50.196;8.096;2022-08-16T04:12:55;2.27;;;2.10;;
15982;SDS011;14442;50.196;8.096;2022-08-16T04:15:24;2.50;;;2.40;;
15982;SDS011;14442;50.196;8.096;2022-08-16T04:17:54;2.27;;;2.17;;
15982;SDS011;14442;50.196;8.096;2022-08-16T04:20:22;2.10;;;2.00;;
15982;SDS011;14442;50.196;8.096;2022-08-16T04:22:49;2.20;;;2.10;;
15982;SDS011;14442;50.196;8.096;2022-08-16T04:25:16;2.47;;;2.30;;
15982;SDS011;14442;50.196;8.096;2022-08-16T04:27:43;2.60;;;2.10;;
15982;SDS011;14442;50.196;8.096;2022-08-16T04:30:12;2.70;;;2.50;;
15982;SDS011;14442;50.196;8.096;2022-08-16T04:32:41;2.40;;;2.20;;
15982;SDS011;14442;50.196;8.096;2022-08-16T04:35:10;3.63;;;2.67;;
15982;SDS011;14442;50.196;8.096;2022-08-16T04:37:40;3.50;;;2.40;;
15982;SDS011;14442;50.196;8.096;2022-08-16T04:40:07;3.83;;;2.63;;
15982;SDS011;14442;50.196;8.096;2022-08-16T04:42:35;2.70;;;2.30;;
15982;SDS011;14442;50.196;8.096;2022-08-16T04:45:04;2.70;;;2.47;;
15982;SDS011;14442;50.196;8.096;2022-08-16T04:47:32;3.17;;;2.37;;
15982;SDS011;14442;50.196;8.096;2022-08-16T04:50:00;3.27;;;2.40;;
15982;SDS011;14442;50.196;8.096;2022-08-16T04:52:29;2.60;;;2.50;;
15982;SDS011;14442;50.196;8.096;2022-08-16T04:54:56;3.73;;;2.53;;
15982;SDS011;14442;50.196;8.096;2022-08-16T04:57:22;2.90;;;2.40;;
15982;SDS011;14442;50.196;8.096;2022-08-16T04:59:49;2.50;;;2.40;;
15982;SDS011;14442;50.196;8.096;2022-08-16T05:02:16;2.60;;;2.43;;
15982;SDS011;14442;50.196;8.096;2022-08-16T05:04:43;6.93;;;2.70;;
15982;SDS011;14442;50.196;8.096;2022-08-16T05:07:11;2.40;;;2.30;;
15982;SDS011;14442;50.196;8.096;2022-08-16T05:09:37;3.10;;;2.90;;
15982;SDS011;14442;50.196;8.096;2022-08-16T05:12:04;2.60;;;2.40;;
15982;SDS011;14442;50.196;8.096;2022-08-16T05:14:31;6.83;;;2.90;;
15982;SDS011;14442;50.196;8.096;2022-08-16T05:16:58;3.80;;;2.80;;
15982;SDS011;14442;50.196;8.096;2022-08-16T05:19:24;4.07;;;2.67;;
15982;SDS011;14442;50.196;8.096;2022-08-16T05:21:51;4.47;;;3.03;;
15982;SDS011;14442;50.196;8.096;2022-08-16T05:24:19;7.53;;;3.10;;
15982;SDS011;14442;50.196;8.096;2022-08-16T05:26:46;6.00;;;3.50;;
15982;SDS011;14442;50.196;8.096;2022-08-16T05:29:13;3.80;;;2.80;;
15982;SDS011;14442;50.196;8.096;2022-08-16T05:31:39;3.07;;;2.87;;
15982;SDS011;14442;50.196;8.096;2022-08-16T05:34:06;8.13;;;3.00;;
15982;SDS011;14442;50.196;8.096;2022-08-16T05:36:33;4.33;;;2.30;;
15982;SDS011;14442;50.196;8.096;2022-08-16T05:39:00;3.57;;;2.63;;
15982;SDS011;14442;50.196;8.096;2022-08-16T05:41:28;3.50;;;3.00;;
15982;SDS011;14442;50.196;8.096;2022-08-16T05:43:55;3.00;;;2.80;;
15982;SDS011;14442;50.196;8.096;2022-08-16T05:46:24;2.97;;;2.73;;
15982;SDS011;14442;50.196;8.096;2022-08-16T05:48:51;2.80;;;2.60;;
15982;SDS011;14442;50.196;8.096;2022-08-16T05:51:18;3.87;;;2.30;;
15982;SDS011;14442;50.196;8.096;2022-08-16T05:53:45;3.03;;;2.83;;
15982;SDS011;14442;50.196;8.096;2022-08-16T05:56:11;2.83;;;2.63;;
15982;SDS011;14442;50.196;8.096;2022-08-16T05:58:39;2.60;;;2.40;;
15982;SDS011;14442;50.196;8.096;2022-08-16T06:01:06;2.67;;;2.43;;
15982;SDS011;14442;50.196;8.096;2022-08-16T06:03:33;2.90;;;2.70;;
15982;SDS011;14442;50.196;8.096;2022-08-16T06:06:00;2.60;;;2.50;;
15982;SDS011;14442;50.196;8.096;2022-08-16T06:08:26;2.60;;;2.50;;
15982;SDS011;14442;50.196;8.096;2022-08-16T06:10:53;2.43;;;2.33;;
15982;SDS011;14442;50.196;8.096;2022-08-16T06:13:20;2.77;;;2.57;;
15982;SDS011;14442;50.196;8.096;2022-08-16T06:15:48;3.50;;;2.60;;
15982;SDS011;14442;50.196;8.096;2022-08-16T06:18:16;2.50;;;2.30;;
15982;SDS011;14442;50.196;8.096;2022-08-16T06:20:42;2.57;;;2.37;;
15982;SDS011;14442;50.196;8.096;2022-08-16T06:23:09;2.60;;;2.40;;
15982;SDS011;14442;50.196;8.096;2022-08-16T06:25:36;2.37;;;2.20;;
15982;SDS011;14442;50.196;8.096;2022-08-16T06:28:03;2.80;;;2.60;;
15982;SDS011;14442;50.196;8.096;2022-08-16T06:30:31;2.33;;;2.23;;
15982;SDS011;14442;50.196;8.096;2022-08-16T06:32:59;2.43;;;2.30;;
15982;SDS011;14442;50.196;8.096;2022-08-16T06:35:27;2.23;;;2.13;;
15982;SDS011;14442;50.196;8.096;2022-08-16T06:37:55;2.27;;;2.17;;
15982;SDS011;14442;50.196;8.096;2022-08-16T06:40:22;2.47;;;2.27;;
15982;SDS011;14442;50.196;8.096;2022-08-16T06:42:49;2.40;;;2.20;;
15982;SDS011;14442;50.196;8.096;2022-08-16T06:45:18;2.40;;;2.20;;
15982;SDS011;14442;50.196;8.096;2022-08-16T06:47:45;2.37;;;2.27;;
15982;SDS011;14442;50.196;8.096;2022-08-16T06:50:13;2.63;;;2.43;;
15982;SDS011;14442;50.196;8.096;2022-08-16T06:52:40;2.17;;;2.07;;
15982;SDS011;14442;50.196;8.096;2022-08-16T06:55:08;2.50;;;2.30;;
15982;SDS011;14442;50.196;8.096;2022-08-16T06:57:35;2.00;;;1.90;;
15982;SDS011;14442;50.196;8.096;2022-08-16T07:00:03;2.17;;;2.07;;
15982;SDS011;14442;50.196;8.096;2022-08-16T07:02:36;2.10;;;2.00;;
15982;SDS011;14442;50.196;8.096;2022-08-16T07:05:03;1.53;;;1.53;;
15982;SDS011;14442;50.196;8.096;2022-08-16T07:07:32;1.80;;;1.70;;
15982;SDS011;14442;50.196;8.096;2022-08-16T07:09:59;2.47;;;1.87;;
15982;SDS011;14442;50.196;8.096;2022-08-16T07:12:27;2.13;;;2.03;;
15982;SDS011;14442;50.196;8.096;2022-08-16T07:14:54;2.00;;;1.90;;
15982;SDS011;14442;50.196;8.096;2022-08-16T07:17:21;1.93;;;1.77;;
15982;SDS011;14442;50.196;8.096;2022-08-16T07:19:49;2.10;;;2.00;;
15982;SDS011;14442;50.196;8.096;2022-08-16T07:22:17;2.10;;;2.00;;
15982;SDS011;14442;50.196;8.096;2022-08-16T07:24:46;7.40;;;2.70;;
15982;SDS011;14442;50.196;8.096;2022-08-16T07:27:13;4.93;;;2.40;;
15982;SDS011;14442;50.196;8.096;2022-08-16T07:29:39;5.23;;;2.30;;
15982;SDS011;14442;50.196;8.096;2022-08-16T07:32:06;5.00;;;2.57;;
15982;SDS011;14442;50.196;8.096;2022-08-16T07:34:33;11.67;;;2.67;;
15982;SDS011;14442;50.196;8.096;2022-08-16T07:37:02;5.90;;;2.40;;
15982;SDS011;14442;50.196;8.096;2022-08-16T07:39:31;6.50;;;2.77;;
15982;SDS011;14442;50.196;8.096;2022-08-16T07:41:59;4.83;;;2.30;;
15982;SDS011;14442;50.196;8.096;2022-08-16T07:44:26;8.70;;;2.40;;
15982;SDS011;14442;50.196;8.096;2022-08-16T07:46:53;7.43;;;2.73;;
15982;SDS011;14442;50.196;8.096;2022-08-16T07:49:20;8.80;;;2.50;;
15982;SDS011;14442;50.196;8.096;2022-08-16T07:51:47;11.27;;;2.50;;
15982;SDS011;14442;50.196;8.096;2022-08-16T07:54:13;8.57;;;3.10;;
15982;SDS011;14442;50.196;8.096;2022-08-16T07:56:41;6.77;;;3.00;;
15982;SDS011;14442;50.196;8.096;2022-08-16T07:59:09;7.80;;;2.63;;
15982;SDS011;14442;50.196;8.096;2022-08-16T08:01:36;5.97;;;2.80;;
15982;SDS011;14442;50.196;8.096;2022-08-16T08:04:04;3.63;;;2.40;;
15982;SDS011;14442;50.196;8.096;2022-08-16T08:06:33;5.07;;;2.37;;
15982;SDS011;14442;50.196;8.096;2022-08-16T08:09:00;9.43;;;2.70;;
15982;SDS011;14442;50.196;8.096;2022-08-16T08:11:28;4.93;;;2.60;;
15982;SDS011;14442;50.196;8.096;2022-08-16T08:13:56;5.27;;;2.43;;
15982;SDS011;14442;50.196;8.096;2022-08-16T08:16:25;5.10;;;2.60;;
15982;SDS011;14442;50.196;8.096;2022-08-16T08:18:52;8.63;;;2.50;;
15982;SDS011;14442;50.196;8.096;2022-08-16T08:21:20;3.23;;;1.77;;
15982;SDS011;14442;50.196;8.096;2022-08-16T08:23:48;5.40;;;2.50;;
15982;SDS011;14442;50.196;8.096;2022-08-16T08:26:16;3.97;;;2.30;;
15982;SDS011;14442;50.196;8.096;2022-08-16T08:28:44;4.27;;;2.43;;
15982;SDS011;14442;50.196;8.096;2022-08-16T08:31:11;2.83;;;2.43;;
15982;SDS011;14442;50.196;8.096;2022-08-16T08:33:39;8.23;;;2.70;;
15982;SDS011;14442;50.196;8.096;2022-08-16T08:36:06;7.60;;;2.27;;
15982;SDS011;14442;50.196;8.096;2022-08-16T08:38:39;6.43;;;1.97;;
15982;SDS011;14442;50.196;8.096;2022-08-16T08:41:07;3.80;;;1.87;;
15982;SDS011;14442;50.196;8.096;2022-08-16T08:43:35;6.27;;;2.00;;
15982;SDS011;14442;50.196;8.096;2022-08-16T08:46:01;4.43;;;1.90;;
15982;SDS011;14442;50.196;8.096;2022-08-16T08:48:28;5.07;;;2.13;;
15982;SDS011;14442;50.196;8.096;2022-08-16T08:50:57;3.80;;;1.90;;
15982;SDS011;14442;50.196;8.096;2022-08-16T08:53:23;4.10;;;1.83;;
15982;SDS011;14442;50.196;8.096;2022-08-16T08:55:51;3.50;;;2.13;;
15982;SDS011;14442;50.196;8.096;2022-08-16T08:58:17;1.77;;;1.53;;
15982;SDS011;14442;50.196;8.096;2022-08-16T09:00:44;4.70;;;1.90;;
15982;SDS011;14442;50.196;8.096;2022-08-16T09:03:11;6.50;;;1.93;;
15982;SDS011;14442;50.196;8.096;2022-08-16T09:05:39;1.80;;;1.70;;
15982;SDS011;14442;50.196;8.096;2022-08-16T09:08:07;4.83;;;2.50;;
15982;SDS011;14442;50.196;8.096;2022-08-16T09:10:34;3.43;;;1.73;;
15982;SDS011;14442;50.196;8.096;2022-08-16T09:13:00;2.57;;;1.60;;
15982;SDS011;14442;50.196;8.096;2022-08-16T09:15:30;2.43;;;1.57;;
15982;SDS011;14442;50.196;8.096;2022-08-16T09:17:57;4.87;;;2.17;;
15982;SDS011;14442;50.196;8.096;2022-08-16T09:20:25;2.97;;;1.50;;
15982;SDS011;14442;50.196;8.096;2022-08-16T09:22:53;5.73;;;1.80;;
15982;SDS011;14442;50.196;8.096;2022-08-16T09:25:22;2.63;;;1.87;;
15982;SDS011;14442;50.196;8.096;2022-08-16T09:27:49;1.80;;;1.70;;
15982;SDS011;14442;50.196;8.096;2022-08-16T09:30:16;4.90;;;1.93;;
15982;SDS011;14442;50.196;8.096;2022-08-16T09:32:44;2.00;;;1.70;;
15982;SDS011;14442;50.196;8.096;2022-08-16T09:35:11;1.77;;;1.53;;
15982;SDS011;14442;50.196;8.096;2022-08-16T09:37:38;1.90;;;1.80;;
15982;SDS011;14442;50.196;8.096;2022-08-16T09:40:05;2.93;;;1.60;;
15982;SDS011;14442;50.196;8.096;2022-08-16T09:42:34;2.83;;;1.90;;
15982;SDS011;14442;50.196;8.096;2022-08-16T09:45:02;1.67;;;1.57;;
15982;SDS011;14442;50.196;8.096;2022-08-16T09:47:32;1.83;;;1.60;;
15982;SDS011;14442;50.196;8.096;2022-08-16T09:50:01;2.07;;;1.80;;
15982;SDS011;14442;50.196;8.096;2022-08-16T09:52:28;3.17;;;1.30;;
15982;SDS011;14442;50.196;8.096;2022-08-16T09:54:56;4.10;;;1.27;;
15982;SDS011;14442;50.196;8.096;2022-08-16T09:57:22;2.20;;;1.40;;
15982;SDS011;14442;50.196;8.096;2022-08-16T09:59:50;2.07;;;1.53;;
15982;SDS011;14442;50.196;8.096;2022-08-16T10:02:17;1.40;;;1.30;;
15982;SDS011;14442;50.196;8.096;2022-08-16T10:04:44;1.70;;;1.60;;
15982;SDS011;14442;50.196;8.096;2022-08-16T10:07:10;2.93;;;1.73;;
15982;SDS011;14442;50.196;8.096;2022-08-16T10:09:37;1.47;;;1.37;;
15982;SDS011;14442;50.196;8.096;2022-08-16T10:12:04;1.37;;;1.23;;
15982;SDS011;14442;50.196;8.096;2022-08-16T10:14:48;1.40;;;1.30;;
15982;SDS011;14442;50.196;8.096;2022-08-16T10:17:16;1.50;;;1.40;;
15982;SDS011;14442;50.196;8.096;2022-08-16T10:19:43;6.93;;;1.90;;
15982;SDS011;14442;50.196;8.096;2022-08-16T10:22:11;4.70;;;1.63;;
15982;SDS011;14442;50.196;8.096;2022-08-16T10:24:38;6.03;;;2.17;;
15982;SDS011;14442;50.196;8.096;2022-08-16T10:27:05;1.80;;;1.10;;
15982;SDS011;14442;50.196;8.096;2022-08-16T10:29:32;1.83;;;1.53;;
15982;SDS011;14442;50.196;8.096;2022-08-16T10:32:01;5.17;;;1.60;;
15982;SDS011;14442;50.196;8.096;2022-08-16T10:36:58;8.70;;;1.80;;
15982;SDS011;14442;50.196;8.096;2022-08-16T10:39:26;4.53;;;2.00;;
15982;SDS011;14442;50.196;8.096;2022-08-16T10:41:53;5.47;;;1.70;;
15982;SDS011;14442;50.196;8.096;2022-08-16T10:44:19;3.93;;;1.80;;
15982;SDS011;14442;50.196;8.096;2022-08-16T10:46:46;5.50;;;1.83;;
15982;SDS011;14442;50.196;8.096;2022-08-16T10:49:14;6.17;;;1.90;;
15982;SDS011;14442;50.196;8.096;2022-08-16T10:51:41;3.17;;;2.07;;
15982;SDS011;14442;50.196;8.096;2022-08-16T10:54:07;3.27;;;1.60;;
15982;SDS011;14442;50.196;8.096;2022-08-16T10:56:34;4.37;;;1.70;;
15982;SDS011;14442;50.196;8.096;2022-08-16T10:59:01;4.43;;;1.40;;
15982;SDS011;14442;50.196;8.096;2022-08-16T11:01:30;5.00;;;1.93;;
15982;SDS011;14442;50.196;8.096;2022-08-16T11:03:56;3.07;;;1.40;;
15982;SDS011;14442;50.196;8.096;2022-08-16T11:06:26;8.73;;;2.23;;
15982;SDS011;14442;50.196;8.096;2022-08-16T11:08:54;6.47;;;2.10;;
15982;SDS011;14442;50.196;8.096;2022-08-16T11:11:22;8.00;;;1.97;;
15982;SDS011;14442;50.196;8.096;2022-08-16T11:13:50;11.60;;;2.30;;
15982;SDS011;14442;50.196;8.096;2022-08-16T11:16:17;7.93;;;2.07;;
15982;SDS011;14442;50.196;8.096;2022-08-16T11:18:44;11.67;;;2.00;;
15982;SDS011;14442;50.196;8.096;2022-08-16T11:21:11;8.57;;;2.17;;
15982;SDS011;14442;50.196;8.096;2022-08-16T11:23:40;12.07;;;2.20;;
15982;SDS011;14442;50.196;8.096;2022-08-16T11:26:07;13.87;;;2.30;;
15982;SDS011;14442;50.196;8.096;2022-08-16T11:28:34;10.07;;;2.30;;
15982;SDS011;14442;50.196;8.096;2022-08-16T11:31:01;7.83;;;2.37;;
15982;SDS011;14442;50.196;8.096;2022-08-16T11:33:27;11.83;;;1.90;;
15982;SDS011;14442;50.196;8.096;2022-08-16T11:35:54;8.73;;;2.30;;
15982;SDS011;14442;50.196;8.096;2022-08-16T11:38:21;7.37;;;1.70;;
15982;SDS011;14442;50.196;8.096;2022-08-16T11:40:50;5.47;;;2.17;;
15982;SDS011;14442;50.196;8.096;2022-08-16T11:43:22;9.20;;;2.53;;
15982;SDS011;14442;50.196;8.096;2022-08-16T11:45:50;7.20;;;2.13;;
15982;SDS011;14442;50.196;8.096;2022-08-16T11:48:17;5.90;;;1.60;;
15982;SDS011;14442;50.196;8.096;2022-08-16T11:50:45;7.33;;;2.17;;
15982;SDS011;14442;50.196;8.096;2022-08-16T11:53:12;4.73;;;2.07;;
15982;SDS011;14442;50.196;8.096;2022-08-16T11:55:39;5.90;;;2.13;;
15982;SDS011;14442;50.196;8.096;2022-08-16T11:58:08;4.20;;;1.63;;
15982;SDS011;14442;50.196;8.096;2022-08-16T12:00:35;3.50;;;1.80;;
15982;SDS011;14442;50.196;8.096;2022-08-16T12:03:03;5.17;;;1.80;;
15982;SDS011;14442;50.196;8.096;2022-08-16T12:05:30;8.43;;;2.00;;
15982;SDS011;14442;50.196;8.096;2022-08-16T12:07:57;5.63;;;1.50;;
15982;SDS011;14442;50.196;8.096;2022-08-16T12:10:24;6.23;;;1.40;;
15982;SDS011;14442;50.196;8.096;2022-08-16T12:12:52;4.67;;;1.80;;
15982;SDS011;14442;50.196;8.096;2022-08-16T12:15:21;6.00;;;1.50;;
15982;SDS011;14442;50.196;8.096;2022-08-16T12:17:49;5.43;;;2.07;;
15982;SDS011;14442;50.196;8.096;2022-08-16T12:20:17;3.40;;;1.53;;
15982;SDS011;14442;50.196;8.096;2022-08-16T12:22:46;5.13;;;2.10;;
15982;SDS011;14442;50.196;8.096;2022-08-16T12:25:15;2.33;;;1.30;;
15982;SDS011;14442;50.196;8.096;2022-08-16T12:27:43;5.83;;;2.20;;
15982;SDS011;14442;50.196;8.096;2022-08-16T12:30:12;18.70;;;2.10;;
15982;SDS011;14442;50.196;8.096;2022-08-16T12:32:42;5.67;;;1.73;;
15982;SDS011;14442;50.196;8.096;2022-08-16T12:35:11;5.20;;;1.80;;
15982;SDS011;14442;50.196;8.096;2022-08-16T12:37:39;7.70;;;2.03;;
15982;SDS011;14442;50.196;8.096;2022-08-16T12:40:13;8.20;;;1.70;;
15982;SDS011;14442;50.196;8.096;2022-08-16T12:42:42;7.80;;;1.30;;
15982;SDS011;14442;50.196;8.096;2022-08-16T12:45:10;5.50;;;1.80;;
15982;SDS011;14442;50.196;8.096;2022-08-16T12:47:39;13.13;;;2.17;;
15982;SDS011;14442;50.196;8.096;2022-08-16T12:50:38;10.83;;;2.00;;
15982;SDS011;14442;50.196;8.096;2022-08-16T12:53:05;35.27;;;2.77;;
15982;SDS011;14442;50.196;8.096;2022-08-16T12:55:32;13.93;;;3.17;;
15982;SDS011;14442;50.196;8.096;2022-08-16T12:57:59;29.60;;;14.53;;
15982;SDS011;14442;50.196;8.096;2022-08-16T13:00:27;80.00;;;45.17;;
15982;SDS011;14442;50.196;8.096;2022-08-16T13:02:55;84.63;;;52.70;;
15982;SDS011;14442;50.196;8.096;2022-08-16T13:05:22;80.97;;;43.50;;
15982;SDS011;14442;50.196;8.096;2022-08-16T13:07:51;63.20;;;40.00;;
15982;SDS011;14442;50.196;8.096;2022-08-16T13:10:19;65.57;;;38.10;;
15982;SDS011;14442;50.196;8.096;2022-08-16T13:12:47;69.07;;;38.47;;
15982;SDS011;14442;50.196;8.096;2022-08-16T13:15:19;69.77;;;36.00;;
15982;SDS011;14442;50.196;8.096;2022-08-16T13:17:48;57.47;;;34.37;;
15982;SDS011;14442;50.196;8.096;2022-08-16T13:20:18;64.43;;;34.03;;
15982;SDS011;14442;50.196;8.096;2022-08-16T13:22:47;59.30;;;32.90;;
15982;SDS011;14442;50.196;8.096;2022-08-16T13:25:20;47.33;;;30.20;;
15982;SDS011;14442;50.196;8.096;2022-08-16T13:27:49;51.20;;;29.97;;
15982;SDS011;14442;50.196;8.096;2022-08-16T13:30:16;55.67;;;31.20;;
15982;SDS011;14442;50.196;8.096;2022-08-16T13:32:43;56.90;;;33.77;;
15982;SDS011;14442;50.196;8.096;2022-08-16T13:35:11;61.07;;;33.00;;
15982;SDS011;14442;50.196;8.096;2022-08-16T13:37:37;67.37;;;35.47;;
15982;SDS011;14442;50.196;8.096;2022-08-16T13:40:05;62.80;;;34.93;;
15982;SDS011;14442;50.196;8.096;2022-08-16T13:42:33;61.47;;;34.33;;
15982;SDS011;14442;50.196;8.096;2022-08-16T13:45:02;55.63;;;32.47;;
15982;SDS011;14442;50.196;8.096;2022-08-16T13:47:30;65.43;;;33.67;;
15982;SDS011;14442;50.196;8.096;2022-08-16T13:49:57;51.67;;;32.53;;
15982;SDS011;14442;50.196;8.096;2022-08-16T13:52:23;60.43;;;32.03;;
15982;SDS011;14442;50.196;8.096;2022-08-16T13:54:50;61.57;;;34.00;;
15982;SDS011;14442;50.196;8.096;2022-08-16T13:57:17;57.03;;;31.60;;
15982;SDS011;14442;50.196;8.096;2022-08-16T13:59:45;60.60;;;33.27;;
15982;SDS011;14442;50.196;8.096;2022-08-16T14:02:12;52.87;;;32.07;;
15982;SDS011;14442;50.196;8.096;2022-08-16T14:04:40;54.80;;;30.30;;
15982;SDS011;14442;50.196;8.096;2022-08-16T14:07:08;53.47;;;30.03;;
15982;SDS011;14442;50.196;8.096;2022-08-16T14:09:36;50.77;;;29.63;;
15982;SDS011;14442;50.196;8.096;2022-08-16T14:12:05;49.87;;;30.50;;
15982;SDS011;14442;50.196;8.096;2022-08-16T14:14:41;51.17;;;29.57;;
15982;SDS011;14442;50.196;8.096;2022-08-16T14:17:09;46.63;;;27.27;;
15982;SDS011;14442;50.196;8.096;2022-08-16T14:19:36;47.43;;;27.77;;
15982;SDS011;14442;50.196;8.096;2022-08-16T14:22:02;37.93;;;25.03;;
15982;SDS011;14442;50.196;8.096;2022-08-16T14:24:29;39.90;;;25.30;;
15982;SDS011;14442;50.196;8.096;2022-08-16T14:26:56;41.33;;;25.07;;
15982;SDS011;14442;50.196;8.096;2022-08-16T14:29:23;38.80;;;24.00;;
15982;SDS011;14442;50.196;8.096;2022-08-16T14:31:49;38.50;;;24.57;;
15982;SDS011;14442;50.196;8.096;2022-08-16T14:34:17;43.60;;;24.37;;
15982;SDS011;14442;50.196;8.096;2022-08-16T14:36:44;39.83;;;24.07;;
15982;SDS011;14442;50.196;8.096;2022-08-16T14:39:11;38.30;;;23.93;;
15982;SDS011;14442;50.196;8.096;2022-08-16T14:41:38;35.17;;;20.73;;
15982;SDS011;14442;50.196;8.096;2022-08-16T14:44:05;38.53;;;21.87;;
15982;SDS011;14442;50.196;8.096;2022-08-16T14:46:31;34.77;;;22.47;;
15982;SDS011;14442;50.196;8.096;2022-08-16T14:48:58;38.40;;;21.47;;